Time;durP1;ratioP1;P1;durP2;ratioP2;P2;SDS_P1;SDS_P2;PMS_P1;PMS_P2;Temp;Humidity;BMP_temperature;BMP_pressure;BME280_temperature;BME280_humidity;BME280_pressure;Samples;Min_cycle;Max_cycle;Signal;HPM_P1;HPM_P2
2022/06/07 00:00:19;;;;;;;;;;;17.50;99.90;;;;;;4591513;19;20255;-30
2022/06/07 00:02:07;;;;;;;;;;;17.60;99.90;;;;;;4589249;19;19919;-31
2022/06/07 00:03:38;;;;;;;;;;;17.60;99.90;;;;;;4590488;19;19919;-31
2022/06/07 00:05:09;;;;;;;;;;;17.70;99.90;;;;;;4590884;19;19915;-33
2022/06/07 00:06:41;;;;;;;;;;;17.70;99.90;;;;;;4588447;19;19919;-34
2022/06/07 00:08:12;;;;;;;;;;;17.80;99.90;;;;;;4591593;19;20317;-32
2022/06/07 00:09:43;;;;;;;;;;;17.80;99.90;;;;;;4589963;19;19932;-28
2022/06/07 00:11:15;;;;;;;;;;;17.80;99.90;;;;;;4590358;19;19937;-36
2022/06/07 00:12:46;;;;;;;;;;;17.90;99.90;;;;;;4591603;19;19983;-30
2022/06/07 00:14:17;;;;;;;;;;;17.90;99.90;;;;;;4592278;19;19918;-29
2022/06/07 00:15:47;;;;;;;;;;;17.90;99.90;;;;;;4591432;19;19915;-31
2022/06/07 00:17:19;;;;;;;;;;;18.00;99.90;;;;;;4591494;19;19947;-30
2022/06/07 00:18:50;;;;;;;;;;;18.00;99.90;;;;;;4590469;19;19986;-29
2022/06/07 00:20:21;;;;;;;;;;;18.00;99.90;;;;;;4591420;19;20259;-30
2022/06/07 00:21:52;;;;;;;;;;;18.00;99.90;;;;;;4591297;19;19918;-30
2022/06/07 00:23:23;;;;;;;;;;;18.10;99.90;;;;;;4591594;19;20241;-32
2022/06/07 00:24:54;;;;;;;;;;;18.10;99.90;;;;;;4591431;19;19919;-31
2022/06/07 00:26:25;;;;;;;;;;;18.10;99.90;;;;;;4590542;19;19936;-32
2022/06/07 00:27:56;;;;;;;;;;;18.10;99.90;;;;;;4589800;19;19922;-34
2022/06/07 00:29:27;;;;;;;;;;;18.20;99.90;;;;;;4591293;19;19915;-30
2022/06/07 00:30:58;;;;;;;;;;;18.20;99.90;;;;;;4588995;19;20378;-35
2022/06/07 00:32:29;;;;;;;;;;;18.20;99.90;;;;;;4590348;19;20345;-38
2022/06/07 00:34:00;;;;;;;;;;;18.20;99.90;;;;;;4590869;19;19919;-29
2022/06/07 00:35:31;;;;;;;;;;;18.20;99.90;;;;;;4591466;19;20350;-30
2022/06/07 00:37:03;;;;;;;;;;;18.30;99.90;;;;;;4590007;19;20031;-31
2022/06/07 00:38:34;;;;;;;;;;;18.30;99.90;;;;;;4590617;19;19907;-31
2022/06/07 00:40:05;;;;;;;;;;;18.30;99.90;;;;;;4591309;19;19914;-28
2022/06/07 00:41:36;;;;;;;;;;;18.30;99.90;;;;;;4591565;19;19915;-34
2022/06/07 00:43:08;;;;;;;;;;;18.30;99.90;;;;;;4590780;19;19926;-31
2022/06/07 00:44:41;;;;;;;;;;;18.30;99.90;;;;;;4590814;19;19919;-30
2022/06/07 00:46:14;;;;;;;;;;;18.30;99.90;;;;;;4591185;19;19915;-34
2022/06/07 00:47:47;;;;;;;;;;;18.30;99.90;;;;;;4589841;19;19919;-30
2022/06/07 00:49:18;;;;;;;;;;;18.40;99.90;;;;;;4590302;19;19919;-34
2022/06/07 00:50:54;;;;;;;;;;;18.40;99.90;;;;;;4590277;19;19911;-34
2022/06/07 00:52:25;;;;;;;;;;;18.40;99.90;;;;;;4590129;19;19911;-31
2022/06/07 00:53:56;;;;;;;;;;;18.40;99.90;;;;;;4591062;19;19935;-29
2022/06/07 00:55:27;;;;;;;;;;;18.40;99.90;;;;;;4589422;19;19986;-29
2022/06/07 00:56:58;;;;;;;;;;;18.40;99.90;;;;;;4590434;19;20351;-34
2022/06/07 00:58:30;;;;;;;;;;;18.50;99.90;;;;;;4591143;19;19963;-33
2022/06/07 01:00:01;;;;;;;;;;;18.50;99.90;;;;;;4590970;19;19993;-32
2022/06/07 01:01:32;;;;;;;;;;;18.50;99.90;;;;;;4590039;19;19915;-33
2022/06/07 01:03:03;;;;;;;;;;;18.50;99.90;;;;;;4590884;19;19918;-30
2022/06/07 01:04:34;;;;;;;52.90;47.90;;;18.60;99.90;;;;;;4591078;19;19919;-31
2022/06/07 01:11:49;;;;;;;;;;;18.60;99.90;;;;;;4586985;19;19962;-30
2022/06/07 01:13:22;;;;;;;;;;;18.60;99.90;;;;;;4588321;19;19910;-30
2022/06/07 01:14:53;;;;;;;;;;;18.60;99.90;;;;;;4588709;19;20057;-37
2022/06/07 01:16:23;;;;;;;;;;;18.60;99.90;;;;;;4588058;19;19923;-33
2022/06/07 01:17:54;;;;;;;;;;;18.60;99.90;;;;;;4588090;19;19923;-29
2022/06/07 01:19:27;;;;;;;;;;;18.60;99.90;;;;;;4588449;19;19932;-30
2022/06/07 01:21:14;;;;;;;;;;;18.60;99.90;;;;;;4588488;19;19915;-32
2022/06/07 01:22:45;;;;;;;;;;;18.60;99.90;;;;;;4588011;19;20281;-31
2022/06/07 01:24:16;;;;;;;;;;;18.60;99.90;;;;;;4587935;19;19923;-34
2022/06/07 01:25:47;;;;;;;;;;;18.60;99.90;;;;;;4587918;19;19923;-30
2022/06/07 01:27:18;;;;;;;;;;;18.60;99.90;;;;;;4588083;19;19926;-29
2022/06/07 01:28:50;;;;;;;;;;;18.60;99.90;;;;;;4588024;19;19922;-34
2022/06/07 01:30:21;;;;;;;;;;;18.60;99.90;;;;;;4587743;19;19923;-31
2022/06/07 01:31:52;;;;;;;;;;;18.60;99.90;;;;;;4586303;19;19958;-35
2022/06/07 01:33:23;;;;;;;;;;;18.50;99.90;;;;;;4588372;19;20358;-34
2022/06/07 01:34:54;;;;;;;;;;;18.60;99.90;;;;;;4587588;19;19915;-34
2022/06/07 01:36:25;;;;;;;;;;;18.50;99.90;;;;;;4588062;19;20322;-31
2022/06/07 01:37:56;;;;;;;;;;;18.50;99.90;;;;;;4588188;19;19915;-31
2022/06/07 01:43:07;;;;;;;;;;;18.50;99.90;;;;;;4592236;19;20315;-32
2022/06/07 01:44:38;;;;;;;;;;;18.50;99.90;;;;;;4592292;19;19922;-34
2022/06/07 01:46:09;;;;;;;;;;;18.50;99.90;;;;;;4592675;19;19978;-31
2022/06/07 01:47:40;;;;;;;;;;;18.50;99.90;;;;;;4593609;19;19926;-31
2022/06/07 01:49:11;;;;;;;;;;;18.50;99.90;;;;;;4593447;19;19978;-39
2022/06/07 01:50:42;;;;;;;;;;;18.50;99.90;;;;;;4593930;19;19940;-30
2022/06/07 01:52:14;;;;;;;;;;;18.50;99.90;;;;;;4594547;19;19919;-30
2022/06/07 01:53:45;;;;;;;;;;;18.50;99.90;;;;;;4594100;19;19949;-32
2022/06/07 01:55:16;;;;;;;;;;;18.50;99.90;;;;;;4594143;19;20381;-29
2022/06/07 01:56:47;;;;;;;;;;;18.50;99.90;;;;;;4594347;19;19926;-32
2022/06/07 01:58:18;;;;;;;;;;;18.50;99.90;;;;;;4594298;19;19926;-34
2022/06/07 01:59:49;;;;;;;;;;;18.50;99.90;;;;;;4594387;19;19922;-31
2022/06/07 02:01:21;;;;;;;;;;;18.50;99.90;;;;;;4594058;19;19913;-34
2022/06/07 02:02:52;;;;;;;;;;;18.50;99.90;;;;;;4594458;19;19925;-30
2022/06/07 02:04:23;;;;;;;;;;;18.50;99.90;;;;;;4593859;19;19915;-31
2022/06/07 02:05:55;;;;;;;;;;;18.50;99.90;;;;;;4594152;19;19915;-30
2022/06/07 02:07:26;;;;;;;;;;;18.50;99.90;;;;;;4593165;19;20353;-32
2022/06/07 02:08:57;;;;;;;;;;;18.50;99.90;;;;;;4594474;19;19911;-31
2022/06/07 02:10:28;;;;;;;;;;;18.50;99.90;;;;;;4593914;19;19975;-35
2022/06/07 02:11:59;;;;;;;;;;;18.50;99.90;;;;;;4594173;19;20267;-33
2022/06/07 02:13:30;;;;;;;;;;;18.50;99.90;;;;;;4594348;19;19928;-30
2022/06/07 02:15:03;;;;;;;;;;;18.50;99.90;;;;;;4594160;19;19919;-34
2022/06/07 02:16:34;;;;;;;;;;;18.50;99.90;;;;;;4592534;19;19983;-29
2022/06/07 02:18:05;;;;;;;;;;;18.50;99.90;;;;;;4593356;19;20312;-34
2022/06/07 02:19:36;;;;;;;;;;;18.50;99.90;;;;;;4593911;19;19919;-31
2022/06/07 02:21:07;;;;;;;;;;;18.50;99.90;;;;;;4593944;19;19919;-34
2022/06/07 02:22:38;;;;;;;;;;;18.50;99.90;;;;;;4593604;19;19919;-31
2022/06/07 02:24:09;;;;;;;;;;;18.50;99.90;;;;;;4593552;19;19922;-29
2022/06/07 02:25:42;;;;;;;;;;;18.50;99.90;;;;;;4593940;19;20314;-31
2022/06/07 02:27:14;;;;;;;;;;;18.50;99.90;;;;;;4592531;19;20406;-30
2022/06/07 02:28:47;;;;;;;;;;;18.50;99.90;;;;;;4592584;19;19922;-33
2022/06/07 02:30:18;;;;;;;;;;;18.50;99.90;;;;;;4593564;19;19915;-30
2022/06/07 02:31:52;;;;;;;;;;;18.50;99.90;;;;;;4592416;19;19935;-32
2022/06/07 02:33:22;;;;;;;;;;;18.50;99.90;;;;;;4593385;19;19919;-29
2022/06/07 02:34:55;;;;;;;;;;;18.50;99.90;;;;;;4592236;19;19918;-29
2022/06/07 02:36:27;;;;;;;;;;;18.50;99.90;;;;;;4593145;19;20344;-29
2022/06/07 02:37:58;;;;;;;;;;;18.50;99.90;;;;;;4592762;19;19929;-35
2022/06/07 02:39:29;;;;;;;;;;;18.50;99.90;;;;;;4592751;19;19922;-33
2022/06/07 02:41:00;;;;;;;;;;;18.50;99.90;;;;;;4592486;19;20236;-34
2022/06/07 02:42:30;;;;;;;;;;;18.50;99.90;;;;;;4593406;19;19918;-30
2022/06/07 02:44:02;;;;;;;;;;;18.50;99.90;;;;;;4593160;19;19915;-31
2022/06/07 02:45:33;;;;;;;;;;;18.50;99.90;;;;;;4593417;19;19942;-32
2022/06/07 02:47:04;;;;;;;;;;;18.50;99.90;;;;;;4593275;19;20353;-35
2022/06/07 02:48:35;;;;;;;;;;;18.50;99.90;;;;;;4592123;19;19938;-30
2022/06/07 02:50:06;;;;;;;;;;;18.50;99.90;;;;;;4592571;19;19955;-29
2022/06/07 02:51:37;;;;;;;;;;;18.50;99.90;;;;;;4590425;19;19918;-32
2022/06/07 02:53:08;;;;;;;;;;;18.50;99.90;;;;;;4593631;19;20355;-34
2022/06/07 02:54:39;;;;;;;;;;;18.50;99.90;;;;;;4593352;19;19910;-33
2022/06/07 02:56:10;;;;;;;;;;;18.40;99.90;;;;;;4593077;19;19915;-30
2022/06/07 02:57:41;;;;;;;;;;;18.50;99.90;;;;;;4591809;19;19931;-29
2022/06/07 02:59:12;;;;;;;;;;;18.50;99.90;;;;;;4592305;19;19986;-30
2022/06/07 03:00:44;;;;;;;;;;;18.50;99.90;;;;;;4592846;19;19938;-34
2022/06/07 03:02:15;;;;;;;;;;;18.50;99.90;;;;;;4591559;19;19915;-31
2022/06/07 03:03:46;;;;;;;;;;;18.50;99.90;;;;;;4593516;19;19918;-30
2022/06/07 03:05:17;;;;;;;;;;;18.50;99.90;;;;;;4593449;19;19919;-33
2022/06/07 03:06:48;;;;;;;;;;;18.50;99.90;;;;;;4590985;19;19921;-30
2022/06/07 03:08:19;;;;;;;;;;;18.50;99.90;;;;;;4592621;19;19915;-33
2022/06/07 03:09:50;;;;;;;;;;;18.50;99.90;;;;;;4593218;19;20015;-29
2022/06/07 03:11:21;;;;;;;;;;;18.50;99.90;;;;;;4592596;19;19922;-34
2022/06/07 03:12:53;;;;;;;;;;;18.50;99.90;;;;;;4592560;19;19922;-33
2022/06/07 03:14:24;;;;;;;;;;;18.50;99.90;;;;;;4592404;19;19949;-30
2022/06/07 03:15:56;;;;;;;;;;;18.50;99.90;;;;;;4592747;19;20261;-31
2022/06/07 03:17:27;;;;;;;;;;;18.50;99.90;;;;;;4592858;19;19911;-30
2022/06/07 03:18:58;;;;;;;;;;;18.50;99.90;;;;;;4592508;19;20329;-34
2022/06/07 03:20:29;;;;;;;;;;;18.50;99.90;;;;;;4593200;19;20007;-34
2022/06/07 03:22:00;;;;;;;;;;;18.50;99.90;;;;;;4593180;19;19939;-39
2022/06/07 03:23:31;;;;;;;;;;;18.50;99.90;;;;;;4592357;19;19920;-30
2022/06/07 03:25:05;;;;;;;;;;;18.50;99.90;;;;;;4592593;19;19987;-36
2022/06/07 03:26:36;;;;;;;;;;;18.50;99.90;;;;;;4592523;19;19919;-32
2022/06/07 03:28:07;;;;;;;;;;;18.50;99.90;;;;;;4592946;19;20318;-34
2022/06/07 03:29:38;;;;;;;;;;;18.50;99.90;;;;;;4592350;19;19915;-31
2022/06/07 03:31:12;;;;;;;;;;;18.50;99.90;;;;;;4591617;19;19939;-34
2022/06/07 03:32:43;;;;;;;;;;;18.50;99.90;;;;;;4592020;19;20330;-29
2022/06/07 03:34:14;;;;;;;;;;;18.50;99.90;;;;;;4591216;19;20269;-30
2022/06/07 03:35:45;;;;;;;;;;;18.50;99.90;;;;;;4591926;19;19921;-30
2022/06/07 03:37:16;;;;;;;;;;;18.50;99.90;;;;;;4592697;19;19929;-34
2022/06/07 03:38:47;;;;;;;;;;;18.50;99.90;;;;;;4592753;19;19987;-30
2022/06/07 03:40:43;;;;;;;;;;;18.50;99.90;;;;;;4590867;19;19915;-32
2022/06/07 03:42:09;;;;;;;;;;;18.50;99.90;;;;;;4591815;19;19915;-31
2022/06/07 03:43:40;;;;;;;;;;;18.50;99.90;;;;;;4592215;19;19918;-28
2022/06/07 03:45:11;;;;;;;;;;;18.50;99.90;;;;;;4592472;19;19918;-28
2022/06/07 03:46:43;;;;;;;;;;;18.50;99.90;;;;;;4592650;19;19919;-39
2022/06/07 03:48:14;;;;;;;;;;;18.50;99.90;;;;;;4590925;19;19982;-32
2022/06/07 03:49:48;;;;;;;;;;;18.50;99.90;;;;;;4591773;19;19919;-32
2022/06/07 03:51:20;;;;;;;;;;;18.50;99.90;;;;;;4591809;19;19979;-32
2022/06/07 03:52:51;;;;;;;;;;;18.50;99.90;;;;;;4590815;19;19962;-29
2022/06/07 03:54:22;;;;;;;;;;;18.50;99.90;;;;;;4591356;19;19935;-30
2022/06/07 03:55:53;;;;;;;;;;;18.50;99.90;;;;;;4591855;19;19919;-29
2022/06/07 03:57:24;;;;;;;;;;;18.50;99.90;;;;;;4591952;19;19926;-36
2022/06/07 03:58:55;;;;;;;;;;;18.50;99.90;;;;;;4591460;19;20253;-31
2022/06/07 04:00:26;;;;;;;;;;;18.50;99.90;;;;;;4591929;19;20242;-31
2022/06/07 04:01:57;;;;;;;;;;;18.50;99.90;;;;;;4590806;19;19974;-33
2022/06/07 04:03:28;;;;;;;;;;;18.50;99.90;;;;;;4589933;19;19947;-29
2022/06/07 04:04:59;;;;;;;;;;;18.50;99.90;;;;;;4591607;19;19943;-34
2022/06/07 04:06:31;;;;;;;;;;;18.50;99.90;;;;;;4591120;19;19919;-32
2022/06/07 04:08:11;;;;;;;;;;;18.50;99.90;;;;;;4590931;19;19926;-31
2022/06/07 04:09:42;;;;;;;;;;;18.50;99.90;;;;;;4590064;19;19919;-30
2022/06/07 04:11:14;;;;;;;;;;;18.50;99.90;;;;;;4588148;19;19932;-30
2022/06/07 04:12:45;;;;;;;;;;;18.50;99.90;;;;;;4591274;19;19926;-28
2022/06/07 04:14:20;;;;;;;;;;;18.50;99.90;;;;;;4591860;19;19919;-31
2022/06/07 04:15:52;;;;;;;;;;;18.50;99.90;;;;;;4590980;19;19986;-32
2022/06/07 04:17:23;;;;;;;;;;;18.50;99.90;;;;;;4590797;19;19915;-31
2022/06/07 04:18:54;;;;;;;;;;;18.50;99.90;;;;;;4590818;19;19919;-30
2022/06/07 04:20:24;;;;;;;;;;;18.50;99.90;;;;;;4589806;19;19921;-31
2022/06/07 04:21:56;;;;;;;;;;;18.50;99.90;;;;;;4589462;19;20272;-31
2022/06/07 04:23:27;;;;;;;;;;;18.50;99.90;;;;;;4588613;19;19915;-30
2022/06/07 04:24:57;;;;;;;;;;;18.50;99.90;;;;;;4589077;19;19919;-34
2022/06/07 04:26:28;;;;;;;;;;;18.50;99.90;;;;;;4590124;19;19935;-29
2022/06/07 04:27:59;;;;;;;;;;;18.40;99.90;;;;;;4591879;19;20669;-30
2022/06/07 04:29:30;;;;;;;;;;;18.50;99.90;;;;;;4591437;19;19914;-31
2022/06/07 04:31:01;;;;;;;;;;;18.50;99.90;;;;;;4590625;19;20389;-29
2022/06/07 04:32:32;;;;;;;;;;;18.50;99.90;;;;;;4591075;19;19963;-36
2022/06/07 04:34:03;;;;;;;;;;;18.50;99.90;;;;;;4589166;19;19939;-35
2022/06/07 04:35:34;;;;;;;;;;;18.40;99.90;;;;;;4589498;19;19915;-30
2022/06/07 04:37:05;;;;;;;;;;;18.40;99.90;;;;;;4589904;19;19952;-29
2022/06/07 04:38:36;;;;;;;;;;;18.50;99.90;;;;;;4589230;19;19919;-30
2022/06/07 04:40:07;;;;;;;;;;;18.50;99.90;;;;;;4589327;19;19921;-29
2022/06/07 04:41:38;;;;;;;;;;;18.50;99.90;;;;;;4591990;19;19922;-32
2022/06/07 04:43:10;;;;;;;;;;;18.50;99.90;;;;;;4590279;19;19918;-31
2022/06/07 04:44:40;;;;;;;;;;;18.50;99.90;;;;;;4591423;19;19907;-30
2022/06/07 04:46:14;;;;;;;;;;;18.40;99.90;;;;;;4598765;19;19978;-30
2022/06/07 04:47:45;;;;;;;;;;;18.50;99.90;;;;;;4597767;19;19918;-29
2022/06/07 04:49:16;;;;;;;;;;;18.50;99.90;;;;;;4597985;19;19918;-35
2022/06/07 04:50:47;;;;;;;;;;;18.50;99.90;;;;;;4597035;19;19922;-31
2022/06/07 04:52:18;;;;;;;;;;;18.50;99.90;;;;;;4597083;19;19974;-28
2022/06/07 04:53:50;;;;;;;;;;;18.50;99.90;;;;;;4596665;19;19978;-37
2022/06/07 04:55:20;;;;;;;;;;;18.50;99.90;;;;;;4596815;19;19915;-29
2022/06/07 04:56:53;;;;;;;;;;;18.50;99.90;;;;;;4599099;19;19926;-29
2022/06/07 04:58:24;;;;;;;;;;;18.50;99.90;;;;;;4598608;19;20398;-28
2022/06/07 04:59:55;;;;;;;;;;;18.50;99.90;;;;;;4590970;19;19923;-36
2022/06/07 05:01:27;;;;;;;;;;;18.50;99.90;;;;;;4589704;19;20357;-30
2022/06/07 05:02:58;;;;;;;;;;;18.10;99.90;;;;;;4590015;19;19919;-29
2022/06/07 05:04:29;;;;;;;;;;;17.50;99.90;;;;;;4589531;19;20011;-30
2022/06/07 05:06:00;;;;;;;;;;;17.20;99.90;;;;;;4589262;19;19930;-30
2022/06/07 05:07:31;;;;;;;;;;;17.00;99.90;;;;;;4587994;19;20035;-30
2022/06/07 05:09:04;;;;;;;;;;;16.80;99.90;;;;;;4587630;19;19982;-28
2022/06/07 05:10:38;;;;;;;49.08;44.22;;;16.70;99.90;;;;;;4589248;19;20008;-30
2022/06/07 05:12:09;;;;;;;49.83;44.67;;;16.70;99.90;;;;;;4588824;19;20367;-31
2022/06/07 05:13:40;;;;;;;49.53;44.40;;;16.60;99.90;;;;;;4588563;19;20006;-30
2022/06/07 05:15:11;;;;;;;;;;;16.60;99.90;;;;;;4592062;19;20042;-30
2022/06/07 05:16:42;;;;;;;;;;;16.60;99.90;;;;;;4592555;19;19911;-31
2022/06/07 05:18:13;;;;;;;;;;;16.60;99.90;;;;;;4592904;19;20301;-28
2022/06/07 05:19:44;;;;;;;;;;;16.60;99.90;;;;;;4594515;19;19915;-29
2022/06/07 05:21:15;;;;;;;;;;;16.60;99.90;;;;;;4594246;19;20553;-29
2022/06/07 05:22:46;;;;;;;;;;;16.60;99.90;;;;;;4593988;19;20353;-33
2022/06/07 05:24:17;;;;;;;;;;;16.50;99.90;;;;;;4593539;19;19914;-33
2022/06/07 05:25:56;;;;;;;;;;;16.60;99.90;;;;;;4593059;19;19930;-33
2022/06/07 05:27:27;;;;;;;;;;;16.60;99.90;;;;;;4591640;19;19922;-40
2022/06/07 05:28:58;;;;;;;;;;;16.60;99.90;;;;;;4593050;19;19978;-31
2022/06/07 05:30:29;;;;;;;;;;;16.60;99.90;;;;;;4594344;19;19910;-26
2022/06/07 05:32:00;;;;;;;;;;;16.60;99.90;;;;;;4593025;19;19939;-29
2022/06/07 05:33:31;;;;;;;;;;;16.60;99.90;;;;;;4594402;19;19910;-32
2022/06/07 05:35:05;;;;;;;;;;;16.60;99.90;;;;;;4594657;19;20021;-30
2022/06/07 05:36:35;;;;;;;;;;;16.60;99.90;;;;;;4594065;19;20218;-30
2022/06/07 05:38:07;;;;;;;;;;;16.60;99.90;;;;;;4593633;19;19936;-27
2022/06/07 05:39:38;;;;;;;;;;;16.60;99.90;;;;;;4592327;19;19923;-33
2022/06/07 05:41:13;;;;;;;;;;;16.60;99.90;;;;;;4592551;19;19974;-28
2022/06/07 05:42:44;;;;;;;;;;;16.60;99.90;;;;;;4594702;19;20000;-38
2022/06/07 05:44:15;;;;;;;;;;;16.60;99.90;;;;;;4594137;19;20013;-38
2022/06/07 05:45:50;;;;;;;;;;;16.60;99.90;;;;;;4594750;19;19995;-30
2022/06/07 05:47:21;;;;;;;;;;;16.60;99.90;;;;;;4594771;19;19915;-40
2022/06/07 05:48:52;;;;;;;;;;;16.60;99.90;;;;;;4592914;19;19911;-30
2022/06/07 05:50:25;;;;;;;;;;;16.60;99.90;;;;;;4594323;19;20368;-34
2022/06/07 05:51:56;;;;;;;;;;;16.60;99.90;;;;;;4592859;19;19918;-30
2022/06/07 05:53:27;;;;;;;;;;;16.60;99.90;;;;;;4594111;19;20242;-28
2022/06/07 05:54:58;;;;;;;;;;;16.60;99.90;;;;;;4594240;19;19915;-33
2022/06/07 05:56:29;;;;;;;;;;;16.60;99.90;;;;;;4594361;19;19915;-30
2022/06/07 05:58:00;;;;;;;;;;;16.60;99.90;;;;;;4594814;19;19931;-32
2022/06/07 05:59:32;;;;;;;;;;;16.60;99.90;;;;;;4594200;19;19918;-30
2022/06/07 06:01:04;;;;;;;;;;;16.60;99.90;;;;;;4594144;19;19953;-35
2022/06/07 06:02:36;;;;;;;;;;;16.60;99.90;;;;;;4592881;19;19931;-36
2022/06/07 06:04:07;;;;;;;27.63;25.03;;;16.60;99.90;;;;;;4593245;19;20330;-32
2022/06/07 06:05:46;;;;;;;28.50;25.77;;;16.90;99.90;;;;;;4593304;19;20018;-31
2022/06/07 06:07:18;;;;;;;30.80;27.75;;;16.90;99.90;;;;;;4592063;19;20018;-34
2022/06/07 06:10:39;;;;;;;25.10;22.52;;;16.70;99.90;;;;;;4593069;19;20504;-30
2022/06/07 06:12:11;;;;;;;25.25;22.75;;;16.60;99.90;;;;;;4590333;19;20045;-34
2022/06/07 06:13:42;;;;;;;26.35;23.77;;;16.60;99.90;;;;;;4592548;19;20006;-30
2022/06/07 06:15:13;;;;;;;26.48;23.75;;;16.60;99.90;;;;;;4593486;19;20007;-31
2022/06/07 06:16:44;;;;;;;25.30;22.77;;;16.60;99.90;;;;;;4593590;19;20030;-36
2022/06/07 06:18:15;;;;;;;25.17;22.67;;;16.50;99.90;;;;;;4592781;19;20011;-29
2022/06/07 06:19:46;;;;;;;26.63;24.13;;;16.50;99.90;;;;;;4592451;19;20011;-32
2022/06/07 06:21:18;;;;;;;27.88;25.27;;;16.60;99.90;;;;;;4591715;19;20465;-33
2022/06/07 06:22:49;;;;;;;27.90;25.30;;;16.60;99.90;;;;;;4592524;19;20534;-34
2022/06/07 06:24:23;;;;;;;28.85;26.17;;;16.50;99.90;;;;;;4592724;19;20035;-29
2022/06/07 06:25:54;;;;;;;27.65;25.08;;;16.50;99.90;;;;;;4590995;19;20524;-30
2022/06/07 06:27:26;;;;;;;29.85;27.02;;;16.60;99.90;;;;;;4591626;19;20007;-34
2022/06/07 06:28:57;;;;;;;27.33;24.92;;;16.50;99.90;;;;;;4591627;19;20495;-31
2022/06/07 06:30:28;;;;;;;28.58;25.80;;;16.50;99.90;;;;;;4591895;19;20011;-30
2022/06/07 06:31:59;;;;;;;28.33;25.73;;;16.50;99.90;;;;;;4590936;19;20098;-34
2022/06/07 06:33:30;;;;;;;28.00;25.50;;;16.50;99.90;;;;;;4591958;19;20015;-34
2022/06/07 06:35:03;;;;;;;27.77;25.27;;;16.50;99.90;;;;;;4592226;19;20022;-36
2022/06/07 06:36:35;;;;;;;28.50;25.90;;;16.50;99.90;;;;;;4592273;19;20021;-31
2022/06/07 06:38:06;;;;;;;26.08;23.80;;;16.50;99.90;;;;;;4592711;19;20018;-30
2022/06/07 06:39:37;;;;;;;26.75;24.38;;;16.50;99.90;;;;;;4593433;19;20026;-32
2022/06/07 06:41:12;;;;;;;26.27;23.83;;;16.50;99.90;;;;;;4592313;19;20018;-30
2022/06/07 06:42:44;;;;;;;24.98;22.90;;;16.50;99.90;;;;;;4592846;19;20045;-29
2022/06/07 06:44:15;;;;;;;26.88;24.38;;;16.50;99.90;;;;;;4592875;19;20015;-31
2022/06/07 06:45:46;;;;;;;25.08;22.77;;;16.50;99.90;;;;;;4591321;19;20392;-29
2022/06/07 06:47:17;;;;;;;24.17;21.95;;;16.50;99.90;;;;;;4591994;19;20401;-31
2022/06/07 06:48:49;;;;;;;25.65;23.33;;;16.50;99.90;;;;;;4592457;19;20010;-34
2022/06/07 06:50:20;;;;;;;24.20;22.10;;;16.50;99.90;;;;;;4592901;19;20017;-32
2022/06/07 06:51:52;;;;;;;24.98;22.63;;;16.50;99.90;;;;;;4591162;19;20034;-29
2022/06/07 06:53:24;;;;;;;26.35;23.95;;;16.50;99.90;;;;;;4592227;19;20015;-29
2022/06/07 06:55:01;;;;;;;27.08;24.65;;;16.50;99.90;;;;;;4591957;19;20040;-29
2022/06/07 06:56:32;;;;;;;25.48;23.17;;;16.70;99.90;;;;;;4592394;19;20020;-34
2022/06/07 06:58:03;;;;;;;21.67;19.85;;;16.90;99.90;;;;;;4590066;19;20018;-29
2022/06/07 06:59:34;;;;;;;20.13;18.33;;;17.00;99.90;;;;;;4590981;19;20045;-28
2022/06/07 07:01:06;;;;;;;19.73;18.02;;;17.10;99.90;;;;;;4591389;19;20084;-30
2022/06/07 07:02:37;;;;;;;;;;;17.30;99.90;;;;;;4591889;19;20051;-31
2022/06/07 07:04:18;;;;;;;;;;;17.40;99.90;;;;;;4592345;19;20330;-34
2022/06/07 07:05:52;;;;;;;17.30;15.60;;;17.50;99.90;;;;;;4591919;19;19923;-32
2022/06/07 07:07:23;;;;;;;;;;;17.60;99.90;;;;;;4590531;19;20478;-32
2022/06/07 07:08:55;;;;;;;;;;;17.70;99.90;;;;;;4592509;19;19970;-30
2022/06/07 07:10:32;;;;;;;;;;;17.70;99.90;;;;;;4592532;19;19925;-29
2022/06/07 07:13:09;;;;;;;;;;;17.80;99.90;;;;;;4591143;19;19922;-30
2022/06/07 07:14:43;;;;;;;;;;;17.80;99.90;;;;;;4591222;19;19958;-30
2022/06/07 07:16:16;;;;;;;;;;;17.80;99.90;;;;;;4591247;19;19918;-31
2022/06/07 07:17:48;;;;;;;;;;;17.90;99.90;;;;;;4591264;19;19922;-33
2022/06/07 07:19:43;;;;;;;;;;;18.00;99.90;;;;;;4592706;19;19914;-30
2022/06/07 07:21:25;;;;;;;;;;;18.10;99.90;;;;;;4591289;19;19915;-29
2022/06/07 07:22:58;;;;;;;;;;;18.20;99.90;;;;;;4590896;19;19919;-28
2022/06/07 07:24:32;;;;;;;;;;;18.20;99.90;;;;;;4591500;19;19915;-32
2022/06/07 07:26:06;;;;;;;;;;;18.30;99.90;;;;;;4591602;19;20247;-29
2022/06/07 07:27:37;;;;;;;;;;;18.30;99.90;;;;;;4591326;19;19915;-32
2022/06/07 07:29:09;;;;;;;;;;;18.40;99.90;;;;;;4590782;19;20285;-31
2022/06/07 07:30:40;;;;;;;;;;;18.40;99.90;;;;;;4591623;19;19966;-30
2022/06/07 07:32:11;;;;;;;;;;;18.50;99.90;;;;;;4590846;19;19914;-30
2022/06/07 07:33:42;;;;;;;;;;;18.50;99.90;;;;;;4591630;19;19966;-33
2022/06/07 07:35:17;;;;;;;;;;;18.50;99.90;;;;;;4591487;19;19974;-30
2022/06/07 07:36:53;;;;;;;;;;;18.50;99.90;;;;;;4592408;19;19970;-32
2022/06/07 07:38:27;;;;;;;;;;;18.60;99.90;;;;;;4591609;19;19925;-31
2022/06/07 07:39:59;;;;;;;;;;;18.60;99.90;;;;;;4591366;19;19974;-36
2022/06/07 07:41:31;;;;;;;;;;;18.60;99.90;;;;;;4591634;19;19918;-32
2022/06/07 07:43:03;;;;;;;;;;;18.60;99.90;;;;;;4591973;19;19926;-31
2022/06/07 07:44:34;;;;;;;;;;;18.60;99.90;;;;;;4591090;19;19955;-30
2022/06/07 07:46:06;;;;;;;;;;;18.60;99.90;;;;;;4591536;19;20264;-31
2022/06/07 07:47:37;;;;;;;;;;;18.60;99.90;;;;;;4591742;19;19946;-30
2022/06/07 07:49:08;;;;;;;;;;;18.70;99.90;;;;;;4591958;19;19910;-30
2022/06/07 07:50:39;;;;;;;;;;;18.70;99.90;;;;;;4592193;19;20247;-30
2022/06/07 07:52:10;;;;;;;;;;;18.70;99.90;;;;;;4590683;19;20246;-32
2022/06/07 07:53:42;;;;;;;;;;;18.70;99.90;;;;;;4591530;19;19922;-31
2022/06/07 07:55:14;;;;;;;;;;;18.70;99.90;;;;;;4591787;19;19917;-36
2022/06/07 07:56:45;;;;;;;;;;;18.70;99.90;;;;;;4591918;19;19947;-32
2022/06/07 07:58:16;;;;;;;;;;;18.60;99.90;;;;;;4591395;19;20341;-32
2022/06/07 07:59:47;;;;;;;;;;;18.60;99.90;;;;;;4591351;19;19915;-29
2022/06/07 08:01:19;;;;;;;;;;;18.50;99.90;;;;;;4591511;19;20022;-33
2022/06/07 08:02:50;;;;;;;;;;;18.50;99.90;;;;;;4591858;19;20330;-36
2022/06/07 08:04:21;;;;;;;;;;;18.50;99.90;;;;;;4591725;19;19911;-31
2022/06/07 08:05:52;;;;;;;;;;;18.50;99.90;;;;;;4591481;19;19923;-34
2022/06/07 08:07:23;;;;;;;;;;;18.50;99.90;;;;;;4590460;19;19919;-30
2022/06/07 08:08:55;;;;;;;;;;;18.50;99.90;;;;;;4590061;19;19915;-31
2022/06/07 08:10:26;;;;;;;;;;;18.50;99.90;;;;;;4590835;19;19914;-30
2022/06/07 08:11:58;;;;;;;;;;;18.90;99.90;;;;;;4589602;19;19944;-34
2022/06/07 08:13:29;;;;;;;;;;;19.10;99.90;;;;;;4591180;19;20254;-31
2022/06/07 08:15:00;;;;;;;;;;;18.90;99.90;;;;;;4591251;19;19910;-29
2022/06/07 08:16:31;;;;;;;;;;;18.70;99.90;;;;;;4591748;19;19919;-30
2022/06/07 08:18:02;;;;;;;;;;;18.60;99.90;;;;;;4591876;19;20263;-34
2022/06/07 08:19:33;;;;;;;15.50;14.20;;;18.60;99.90;;;;;;4592075;19;19913;-32
2022/06/07 08:21:06;;;;;;;17.30;15.68;;;18.50;99.90;;;;;;4590568;19;20010;-32
2022/06/07 08:22:37;;;;;;;18.30;16.65;;;18.40;99.90;;;;;;4590473;19;20014;-30
2022/06/07 08:24:08;;;;;;;16.40;15.02;;;18.40;99.90;;;;;;4590629;19;20007;-36
2022/06/07 08:25:39;;;;;;;16.05;14.68;;;18.40;99.90;;;;;;4589380;19;20014;-31
2022/06/07 08:27:10;;;;;;;16.80;15.30;;;18.60;99.90;;;;;;4589871;19;20003;-28
2022/06/07 08:28:42;;;;;;;16.00;14.60;;;18.50;99.90;;;;;;4591078;19;20010;-31
2022/06/07 08:30:13;;;;;;;;;;;18.50;99.90;;;;;;4589905;19;20374;-34
2022/06/07 08:31:44;;;;;;;16.75;15.35;;;18.50;99.90;;;;;;4589149;19;19918;-34
2022/06/07 08:38:45;;;;;;;19.08;17.33;;;18.50;99.90;;;;;;4590121;19;20014;-35
2022/06/07 08:40:35;;;;;;;15.52;14.13;;;18.50;99.90;;;;;;4589001;19;20359;-30
2022/06/07 08:42:19;;;;;;;18.67;17.08;;;18.50;99.90;;;;;;4589013;19;20021;-32
2022/06/07 08:43:51;;;;;;;17.90;16.38;;;18.50;99.90;;;;;;4588738;19;20050;-30
2022/06/07 08:45:34;;;;;;;18.17;16.58;;;18.50;99.90;;;;;;4589932;19;20014;-30
2022/06/07 08:47:24;;;;;;;17.63;16.08;;;18.50;99.90;;;;;;4588740;19;20497;-33
2022/06/07 08:48:55;;;;;;;17.05;15.60;;;18.50;99.90;;;;;;4589418;19;20387;-31
2022/06/07 08:50:29;;;;;;;17.75;16.13;;;18.60;99.90;;;;;;4593803;19;20017;-30
2022/06/07 08:52:08;;;;;;;17.40;15.90;;;18.60;99.90;;;;;;4591785;19;20524;-29
2022/06/07 08:53:41;;;;;;;16.13;14.73;;;18.60;99.90;;;;;;4593384;19;20035;-29
2022/06/07 08:55:18;;;;;;;16.40;15.05;;;18.70;99.90;;;;;;4593523;19;20014;-35
2022/06/07 08:56:50;;;;;;;15.90;14.50;;;18.70;99.90;;;;;;4594267;19;20006;-35
2022/06/07 08:58:34;;;;;;;19.45;17.70;;;18.60;99.90;;;;;;4593617;19;20018;-33